sensor_id;sensor_type;location;lat;lon;timestamp;P1;durP1;ratioP1;P2;durP2;ratioP2
58091;SDS011;43896;48.178;11.578;2022-10-16T00:01:08;4.50;;;2.00;;
58091;SDS011;43896;48.178;11.578;2022-10-16T00:03:40;3.47;;;1.70;;
58091;SDS011;43896;48.178;11.578;2022-10-16T00:06:07;3.92;;;1.67;;
58091;SDS011;43896;48.178;11.578;2022-10-16T00:08:33;5.82;;;1.90;;
58091;SDS011;43896;48.178;11.578;2022-10-16T00:11:07;4.22;;;1.65;;
58091;SDS011;43896;48.178;11.578;2022-10-16T00:13:37;5.93;;;1.73;;
58091;SDS011;43896;48.178;11.578;2022-10-16T00:16:04;5.32;;;1.92;;
58091;SDS011;43896;48.178;11.578;2022-10-16T00:18:30;4.28;;;1.67;;
58091;SDS011;43896;48.178;11.578;2022-10-16T00:21:01;3.38;;;1.50;;
58091;SDS011;43896;48.178;11.578;2022-10-16T00:23:28;4.50;;;1.60;;
58091;SDS011;43896;48.178;11.578;2022-10-16T00:25:57;3.83;;;1.60;;
58091;SDS011;43896;48.178;11.578;2022-10-16T00:28:25;3.47;;;1.88;;
58091;SDS011;43896;48.178;11.578;2022-10-16T00:30:50;4.25;;;1.73;;
58091;SDS011;43896;48.178;11.578;2022-10-16T00:33:16;3.60;;;1.70;;
58091;SDS011;43896;48.178;11.578;2022-10-16T00:35:41;4.00;;;1.70;;
58091;SDS011;43896;48.178;11.578;2022-10-16T00:38:07;4.00;;;1.70;;
58091;SDS011;43896;48.178;11.578;2022-10-16T00:40:32;4.00;;;1.50;;
58091;SDS011;43896;48.178;11.578;2022-10-16T00:42:58;4.78;;;2.40;;
58091;SDS011;43896;48.178;11.578;2022-10-16T00:45:23;5.43;;;2.55;;
58091;SDS011;43896;48.178;11.578;2022-10-16T00:47:49;3.55;;;1.60;;
58091;SDS011;43896;48.178;11.578;2022-10-16T00:52:49;3.00;;;1.50;;
58091;SDS011;43896;48.178;11.578;2022-10-16T00:55:16;3.72;;;1.50;;
58091;SDS011;43896;48.178;11.578;2022-10-16T00:57:42;4.18;;;1.70;;
58091;SDS011;43896;48.178;11.578;2022-10-16T01:00:09;3.92;;;1.50;;
58091;SDS011;43896;48.178;11.578;2022-10-16T01:02:36;4.22;;;1.48;;
58091;SDS011;43896;48.178;11.578;2022-10-16T01:05:02;3.97;;;1.50;;
58091;SDS011;43896;48.178;11.578;2022-10-16T01:17:39;4.95;;;1.67;;
58091;SDS011;43896;48.178;11.578;2022-10-16T01:22:40;3.28;;;1.20;;
58091;SDS011;43896;48.178;11.578;2022-10-16T01:25:16;3.53;;;1.40;;
58091;SDS011;43896;48.178;11.578;2022-10-16T01:27:50;4.32;;;1.40;;
58091;SDS011;43896;48.178;11.578;2022-10-16T01:30:18;3.97;;;1.58;;
58091;SDS011;43896;48.178;11.578;2022-10-16T01:32:51;2.85;;;1.27;;
58091;SDS011;43896;48.178;11.578;2022-10-16T01:35:23;5.28;;;1.58;;
58091;SDS011;43896;48.178;11.578;2022-10-16T01:40:33;3.00;;;1.17;;
58091;SDS011;43896;48.178;11.578;2022-10-16T01:43:03;3.08;;;1.55;;
58091;SDS011;43896;48.178;11.578;2022-10-16T01:45:33;3.13;;;1.60;;
58091;SDS011;43896;48.178;11.578;2022-10-16T01:48:01;2.53;;;1.40;;
58091;SDS011;43896;48.178;11.578;2022-10-16T01:50:31;3.33;;;1.38;;
58091;SDS011;43896;48.178;11.578;2022-10-16T01:53:00;3.85;;;1.52;;
58091;SDS011;43896;48.178;11.578;2022-10-16T01:55:29;4.57;;;1.48;;
58091;SDS011;43896;48.178;11.578;2022-10-16T02:00:24;2.80;;;1.27;;
58091;SDS011;43896;48.178;11.578;2022-10-16T02:02:52;3.42;;;1.45;;
58091;SDS011;43896;48.178;11.578;2022-10-16T02:07:57;3.88;;;1.50;;
58091;SDS011;43896;48.178;11.578;2022-10-16T02:10:23;3.63;;;1.58;;
58091;SDS011;43896;48.178;11.578;2022-10-16T02:12:58;3.47;;;1.38;;
58091;SDS011;43896;48.178;11.578;2022-10-16T02:15:28;2.72;;;1.25;;
58091;SDS011;43896;48.178;11.578;2022-10-16T02:17:54;3.97;;;1.23;;
58091;SDS011;43896;48.178;11.578;2022-10-16T02:20:20;2.97;;;1.20;;
58091;SDS011;43896;48.178;11.578;2022-10-16T02:22:50;4.53;;;1.95;;
58091;SDS011;43896;48.178;11.578;2022-10-16T02:25:25;6.03;;;3.00;;
58091;SDS011;43896;48.178;11.578;2022-10-16T02:28:00;5.07;;;1.70;;
58091;SDS011;43896;48.178;11.578;2022-10-16T02:30:48;2.75;;;1.10;;
58091;SDS011;43896;48.178;11.578;2022-10-16T02:33:21;1.98;;;1.10;;
58091;SDS011;43896;48.178;11.578;2022-10-16T02:35:48;4.40;;;1.27;;
58091;SDS011;43896;48.178;11.578;2022-10-16T02:38:15;3.20;;;1.45;;
58091;SDS011;43896;48.178;11.578;2022-10-16T02:40:42;2.83;;;1.30;;
58091;SDS011;43896;48.178;11.578;2022-10-16T02:43:08;2.30;;;1.10;;
58091;SDS011;43896;48.178;11.578;2022-10-16T02:45:34;2.40;;;1.20;;
58091;SDS011;43896;48.178;11.578;2022-10-16T02:48:00;4.43;;;1.25;;
58091;SDS011;43896;48.178;11.578;2022-10-16T02:50:25;3.30;;;1.10;;
58091;SDS011;43896;48.178;11.578;2022-10-16T02:52:50;3.53;;;1.20;;
58091;SDS011;43896;48.178;11.578;2022-10-16T02:55:16;2.83;;;1.10;;
58091;SDS011;43896;48.178;11.578;2022-10-16T02:57:42;3.38;;;1.20;;
58091;SDS011;43896;48.178;11.578;2022-10-16T03:00:09;2.10;;;1.00;;
58091;SDS011;43896;48.178;11.578;2022-10-16T03:02:36;2.83;;;1.20;;
58091;SDS011;43896;48.178;11.578;2022-10-16T03:05:01;2.40;;;1.30;;
58091;SDS011;43896;48.178;11.578;2022-10-16T03:07:27;3.05;;;1.10;;
58091;SDS011;43896;48.178;11.578;2022-10-16T03:09:52;3.05;;;1.10;;
58091;SDS011;43896;48.178;11.578;2022-10-16T03:12:18;2.42;;;1.15;;
58091;SDS011;43896;48.178;11.578;2022-10-16T03:14:43;2.97;;;1.30;;
58091;SDS011;43896;48.178;11.578;2022-10-16T03:17:08;2.00;;;1.00;;
58091;SDS011;43896;48.178;11.578;2022-10-16T03:19:34;3.40;;;1.15;;
58091;SDS011;43896;48.178;11.578;2022-10-16T03:22:00;2.47;;;1.10;;
58091;SDS011;43896;48.178;11.578;2022-10-16T03:24:26;3.67;;;1.00;;
58091;SDS011;43896;48.178;11.578;2022-10-16T03:26:51;2.58;;;1.15;;
58091;SDS011;43896;48.178;11.578;2022-10-16T03:29:17;3.10;;;1.10;;
58091;SDS011;43896;48.178;11.578;2022-10-16T03:31:42;2.70;;;1.20;;
58091;SDS011;43896;48.178;11.578;2022-10-16T03:34:07;3.05;;;1.20;;
58091;SDS011;43896;48.178;11.578;2022-10-16T03:36:33;6.68;;;3.47;;
58091;SDS011;43896;48.178;11.578;2022-10-16T03:38:58;3.92;;;1.70;;
58091;SDS011;43896;48.178;11.578;2022-10-16T03:41:23;2.97;;;1.27;;
58091;SDS011;43896;48.178;11.578;2022-10-16T03:43:49;2.10;;;1.00;;
58091;SDS011;43896;48.178;11.578;2022-10-16T03:46:14;2.50;;;1.10;;
58091;SDS011;43896;48.178;11.578;2022-10-16T03:48:40;3.50;;;1.10;;
58091;SDS011;43896;48.178;11.578;2022-10-16T03:51:05;5.15;;;1.10;;
58091;SDS011;43896;48.178;11.578;2022-10-16T03:53:31;2.88;;;1.20;;
58091;SDS011;43896;48.178;11.578;2022-10-16T03:55:56;2.72;;;1.30;;
58091;SDS011;43896;48.178;11.578;2022-10-16T03:58:22;4.28;;;1.17;;
58091;SDS011;43896;48.178;11.578;2022-10-16T04:00:47;3.50;;;1.10;;
58091;SDS011;43896;48.178;11.578;2022-10-16T04:03:15;2.25;;;0.90;;
58091;SDS011;43896;48.178;11.578;2022-10-16T04:05:40;2.85;;;1.10;;
58091;SDS011;43896;48.178;11.578;2022-10-16T04:08:06;2.28;;;1.00;;
58091;SDS011;43896;48.178;11.578;2022-10-16T04:10:32;2.50;;;1.05;;
58091;SDS011;43896;48.178;11.578;2022-10-16T04:12:57;2.25;;;0.93;;
58091;SDS011;43896;48.178;11.578;2022-10-16T04:15:23;2.97;;;1.10;;
58091;SDS011;43896;48.178;11.578;2022-10-16T04:17:49;2.20;;;0.90;;
58091;SDS011;43896;48.178;11.578;2022-10-16T04:20:14;4.05;;;1.10;;
58091;SDS011;43896;48.178;11.578;2022-10-16T04:22:40;3.22;;;1.23;;
58091;SDS011;43896;48.178;11.578;2022-10-16T04:25:05;2.75;;;0.93;;
58091;SDS011;43896;48.178;11.578;2022-10-16T04:27:31;3.33;;;1.13;;
58091;SDS011;43896;48.178;11.578;2022-10-16T04:29:57;2.97;;;1.00;;
58091;SDS011;43896;48.178;11.578;2022-10-16T04:32:24;2.42;;;1.10;;
58091;SDS011;43896;48.178;11.578;2022-10-16T04:34:49;2.63;;;1.30;;
58091;SDS011;43896;48.178;11.578;2022-10-16T04:37:14;2.75;;;1.10;;
58091;SDS011;43896;48.178;11.578;2022-10-16T04:39:40;2.85;;;1.20;;
58091;SDS011;43896;48.178;11.578;2022-10-16T04:42:05;3.75;;;1.30;;
58091;SDS011;43896;48.178;11.578;2022-10-16T04:44:30;2.08;;;1.17;;
58091;SDS011;43896;48.178;11.578;2022-10-16T04:46:56;4.65;;;1.20;;
58091;SDS011;43896;48.178;11.578;2022-10-16T04:49:23;2.60;;;1.02;;
58091;SDS011;43896;48.178;11.578;2022-10-16T04:51:48;4.65;;;1.17;;
58091;SDS011;43896;48.178;11.578;2022-10-16T04:54:19;3.10;;;1.10;;
58091;SDS011;43896;48.178;11.578;2022-10-16T04:56:45;3.45;;;1.30;;
58091;SDS011;43896;48.178;11.578;2022-10-16T04:59:21;2.40;;;1.10;;
58091;SDS011;43896;48.178;11.578;2022-10-16T05:01:47;3.17;;;1.15;;
58091;SDS011;43896;48.178;11.578;2022-10-16T05:04:13;4.38;;;1.60;;
58091;SDS011;43896;48.178;11.578;2022-10-16T05:06:40;3.03;;;1.13;;
58091;SDS011;43896;48.178;11.578;2022-10-16T05:09:05;2.33;;;1.10;;
58091;SDS011;43896;48.178;11.578;2022-10-16T05:11:31;2.92;;;1.00;;
58091;SDS011;43896;48.178;11.578;2022-10-16T05:13:57;3.08;;;1.20;;
58091;SDS011;43896;48.178;11.578;2022-10-16T05:16:22;3.55;;;1.30;;
58091;SDS011;43896;48.178;11.578;2022-10-16T05:18:48;4.68;;;1.20;;
58091;SDS011;43896;48.178;11.578;2022-10-16T05:21:14;4.53;;;1.30;;
58091;SDS011;43896;48.178;11.578;2022-10-16T05:23:39;4.70;;;1.40;;
58091;SDS011;43896;48.178;11.578;2022-10-16T05:26:05;3.05;;;1.30;;
58091;SDS011;43896;48.178;11.578;2022-10-16T05:28:30;5.05;;;1.27;;
58091;SDS011;43896;48.178;11.578;2022-10-16T05:30:56;3.10;;;1.10;;
58091;SDS011;43896;48.178;11.578;2022-10-16T05:33:22;4.35;;;1.42;;
58091;SDS011;43896;48.178;11.578;2022-10-16T05:35:50;2.75;;;1.30;;
58091;SDS011;43896;48.178;11.578;2022-10-16T05:38:16;3.20;;;1.38;;
58091;SDS011;43896;48.178;11.578;2022-10-16T05:40:42;3.03;;;1.30;;
58091;SDS011;43896;48.178;11.578;2022-10-16T05:43:07;2.97;;;1.13;;
58091;SDS011;43896;48.178;11.578;2022-10-16T05:45:33;2.83;;;1.25;;
58091;SDS011;43896;48.178;11.578;2022-10-16T05:48:07;5.30;;;1.42;;
58091;SDS011;43896;48.178;11.578;2022-10-16T05:50:33;3.15;;;1.35;;
58091;SDS011;43896;48.178;11.578;2022-10-16T05:52:58;3.60;;;1.40;;
58091;SDS011;43896;48.178;11.578;2022-10-16T05:55:23;5.43;;;1.50;;
58091;SDS011;43896;48.178;11.578;2022-10-16T05:57:59;3.15;;;1.40;;
58091;SDS011;43896;48.178;11.578;2022-10-16T06:00:25;4.53;;;1.67;;
58091;SDS011;43896;48.178;11.578;2022-10-16T06:02:50;3.10;;;1.45;;
58091;SDS011;43896;48.178;11.578;2022-10-16T06:05:15;4.10;;;1.50;;
58091;SDS011;43896;48.178;11.578;2022-10-16T06:07:40;4.78;;;1.50;;
58091;SDS011;43896;48.178;11.578;2022-10-16T06:10:06;4.32;;;1.42;;
58091;SDS011;43896;48.178;11.578;2022-10-16T06:12:32;4.10;;;1.40;;
58091;SDS011;43896;48.178;11.578;2022-10-16T06:14:57;3.05;;;1.27;;
58091;SDS011;43896;48.178;11.578;2022-10-16T06:17:22;3.10;;;1.40;;
58091;SDS011;43896;48.178;11.578;2022-10-16T06:19:48;4.65;;;1.40;;
58091;SDS011;43896;48.178;11.578;2022-10-16T06:22:14;4.05;;;1.20;;
58091;SDS011;43896;48.178;11.578;2022-10-16T06:24:39;3.10;;;1.45;;
58091;SDS011;43896;48.178;11.578;2022-10-16T06:27:05;3.80;;;1.40;;
58091;SDS011;43896;48.178;11.578;2022-10-16T06:29:30;4.20;;;1.50;;
58091;SDS011;43896;48.178;11.578;2022-10-16T06:31:55;4.93;;;1.52;;
58091;SDS011;43896;48.178;11.578;2022-10-16T06:34:21;2.53;;;1.40;;
58091;SDS011;43896;48.178;11.578;2022-10-16T06:36:46;4.10;;;1.40;;
58091;SDS011;43896;48.178;11.578;2022-10-16T06:39:12;4.00;;;1.35;;
58091;SDS011;43896;48.178;11.578;2022-10-16T06:41:37;3.70;;;1.60;;
58091;SDS011;43896;48.178;11.578;2022-10-16T06:44:06;3.50;;;1.55;;
58091;SDS011;43896;48.178;11.578;2022-10-16T06:46:32;3.55;;;1.63;;
58091;SDS011;43896;48.178;11.578;2022-10-16T06:48:58;3.22;;;1.42;;
58091;SDS011;43896;48.178;11.578;2022-10-16T06:51:24;3.95;;;1.50;;
58091;SDS011;43896;48.178;11.578;2022-10-16T06:53:53;5.35;;;1.80;;
58091;SDS011;43896;48.178;11.578;2022-10-16T06:56:22;4.50;;;1.48;;
58091;SDS011;43896;48.178;11.578;2022-10-16T06:58:49;3.53;;;1.50;;
58091;SDS011;43896;48.178;11.578;2022-10-16T07:01:16;3.60;;;1.50;;
58091;SDS011;43896;48.178;11.578;2022-10-16T07:03:43;3.58;;;1.55;;
58091;SDS011;43896;48.178;11.578;2022-10-16T07:06:10;4.75;;;1.70;;
58091;SDS011;43896;48.178;11.578;2022-10-16T07:08:38;3.60;;;1.52;;
58091;SDS011;43896;48.178;11.578;2022-10-16T07:11:05;3.78;;;1.60;;
58091;SDS011;43896;48.178;11.578;2022-10-16T07:13:33;2.95;;;1.50;;
58091;SDS011;43896;48.178;11.578;2022-10-16T07:16:03;3.83;;;1.55;;
58091;SDS011;43896;48.178;11.578;2022-10-16T07:18:30;4.05;;;1.80;;
58091;SDS011;43896;48.178;11.578;2022-10-16T07:21:02;4.72;;;1.60;;
58091;SDS011;43896;48.178;11.578;2022-10-16T07:23:38;3.60;;;1.70;;
58091;SDS011;43896;48.178;11.578;2022-10-16T07:26:04;3.15;;;1.52;;
58091;SDS011;43896;48.178;11.578;2022-10-16T07:28:31;4.40;;;1.67;;
58091;SDS011;43896;48.178;11.578;2022-10-16T07:31:00;3.78;;;1.75;;
58091;SDS011;43896;48.178;11.578;2022-10-16T07:33:30;3.83;;;1.77;;
58091;SDS011;43896;48.178;11.578;2022-10-16T07:35:55;2.92;;;1.55;;
58091;SDS011;43896;48.178;11.578;2022-10-16T07:38:21;4.70;;;1.73;;
58091;SDS011;43896;48.178;11.578;2022-10-16T07:40:47;3.55;;;1.65;;
58091;SDS011;43896;48.178;11.578;2022-10-16T07:43:13;5.53;;;1.90;;
58091;SDS011;43896;48.178;11.578;2022-10-16T07:45:46;5.68;;;1.90;;
58091;SDS011;43896;48.178;11.578;2022-10-16T07:48:14;5.57;;;2.03;;
58091;SDS011;43896;48.178;11.578;2022-10-16T07:50:39;3.40;;;1.60;;
58091;SDS011;43896;48.178;11.578;2022-10-16T07:53:04;5.30;;;1.80;;
58091;SDS011;43896;48.178;11.578;2022-10-16T07:55:30;4.15;;;2.00;;
58091;SDS011;43896;48.178;11.578;2022-10-16T07:57:55;4.72;;;2.03;;
58091;SDS011;43896;48.178;11.578;2022-10-16T08:00:20;4.15;;;1.60;;
58091;SDS011;43896;48.178;11.578;2022-10-16T08:02:45;4.93;;;1.90;;
58091;SDS011;43896;48.178;11.578;2022-10-16T08:05:11;3.67;;;1.63;;
58091;SDS011;43896;48.178;11.578;2022-10-16T08:07:36;4.15;;;1.80;;
58091;SDS011;43896;48.178;11.578;2022-10-16T08:10:01;3.13;;;1.60;;
58091;SDS011;43896;48.178;11.578;2022-10-16T08:12:28;5.15;;;1.98;;
58091;SDS011;43896;48.178;11.578;2022-10-16T08:14:53;3.67;;;1.80;;
58091;SDS011;43896;48.178;11.578;2022-10-16T08:17:18;4.95;;;1.98;;
58091;SDS011;43896;48.178;11.578;2022-10-16T08:19:44;4.05;;;1.90;;
58091;SDS011;43896;48.178;11.578;2022-10-16T08:22:10;3.83;;;1.80;;
58091;SDS011;43896;48.178;11.578;2022-10-16T08:24:36;3.72;;;1.67;;
58091;SDS011;43896;48.178;11.578;2022-10-16T08:27:02;4.55;;;1.65;;
58091;SDS011;43896;48.178;11.578;2022-10-16T08:29:27;4.47;;;1.70;;
58091;SDS011;43896;48.178;11.578;2022-10-16T08:31:52;3.65;;;1.50;;
58091;SDS011;43896;48.178;11.578;2022-10-16T08:34:18;3.00;;;1.48;;
58091;SDS011;43896;48.178;11.578;2022-10-16T08:36:43;3.88;;;1.70;;
58091;SDS011;43896;48.178;11.578;2022-10-16T08:39:09;3.35;;;1.60;;
58091;SDS011;43896;48.178;11.578;2022-10-16T08:41:48;4.53;;;1.67;;
58091;SDS011;43896;48.178;11.578;2022-10-16T08:44:24;3.55;;;1.58;;
58091;SDS011;43896;48.178;11.578;2022-10-16T08:49:42;3.40;;;1.40;;
58091;SDS011;43896;48.178;11.578;2022-10-16T08:52:13;4.60;;;1.63;;
58091;SDS011;43896;48.178;11.578;2022-10-16T08:54:41;4.38;;;1.55;;
58091;SDS011;43896;48.178;11.578;2022-10-16T08:57:14;3.22;;;1.45;;
58091;SDS011;43896;48.178;11.578;2022-10-16T08:59:43;4.18;;;1.50;;
58091;SDS011;43896;48.178;11.578;2022-10-16T09:02:18;3.15;;;1.40;;
58091;SDS011;43896;48.178;11.578;2022-10-16T09:08:03;3.75;;;1.40;;
58091;SDS011;43896;48.178;11.578;2022-10-16T09:13:34;3.53;;;1.38;;
58091;SDS011;43896;48.178;11.578;2022-10-16T09:21:18;3.75;;;1.40;;
58091;SDS011;43896;48.178;11.578;2022-10-16T09:23:47;3.33;;;1.25;;
58091;SDS011;43896;48.178;11.578;2022-10-16T09:26:13;4.65;;;1.30;;
58091;SDS011;43896;48.178;11.578;2022-10-16T09:28:40;2.83;;;1.30;;
58091;SDS011;43896;48.178;11.578;2022-10-16T09:31:05;3.15;;;1.23;;
58091;SDS011;43896;48.178;11.578;2022-10-16T09:33:38;4.22;;;1.60;;
58091;SDS011;43896;48.178;11.578;2022-10-16T09:36:05;5.68;;;1.27;;
58091;SDS011;43896;48.178;11.578;2022-10-16T09:38:32;2.75;;;1.20;;
58091;SDS011;43896;48.178;11.578;2022-10-16T09:41:00;2.25;;;1.30;;
58091;SDS011;43896;48.178;11.578;2022-10-16T09:43:32;2.38;;;1.10;;
58091;SDS011;43896;48.178;11.578;2022-10-16T09:46:05;2.08;;;1.10;;
58091;SDS011;43896;48.178;11.578;2022-10-16T09:48:37;3.17;;;1.10;;
58091;SDS011;43896;48.178;11.578;2022-10-16T09:51:06;4.30;;;1.50;;
58091;SDS011;43896;48.178;11.578;2022-10-16T09:53:42;2.50;;;1.40;;
58091;SDS011;43896;48.178;11.578;2022-10-16T09:56:10;2.78;;;1.45;;
58091;SDS011;43896;48.178;11.578;2022-10-16T10:01:11;4.10;;;1.48;;
58091;SDS011;43896;48.178;11.578;2022-10-16T10:03:39;4.80;;;1.30;;
58091;SDS011;43896;48.178;11.578;2022-10-16T10:06:26;2.95;;;1.23;;
58091;SDS011;43896;48.178;11.578;2022-10-16T10:09:02;2.55;;;1.50;;
58091;SDS011;43896;48.178;11.578;2022-10-16T10:11:40;2.72;;;1.40;;
58091;SDS011;43896;48.178;11.578;2022-10-16T10:16:50;3.08;;;1.30;;
58091;SDS011;43896;48.178;11.578;2022-10-16T10:19:18;3.90;;;2.20;;
58091;SDS011;43896;48.178;11.578;2022-10-16T10:21:46;5.18;;;2.22;;
58091;SDS011;43896;48.178;11.578;2022-10-16T10:24:12;6.78;;;2.20;;
58091;SDS011;43896;48.178;11.578;2022-10-16T10:26:41;3.25;;;1.63;;
58091;SDS011;43896;48.178;11.578;2022-10-16T10:32:06;2.80;;;1.60;;
58091;SDS011;43896;48.178;11.578;2022-10-16T10:34:49;3.55;;;1.50;;
58091;SDS011;43896;48.178;11.578;2022-10-16T10:39:55;2.78;;;1.45;;
58091;SDS011;43896;48.178;11.578;2022-10-16T10:42:33;3.58;;;1.48;;
58091;SDS011;43896;48.178;11.578;2022-10-16T10:53:15;2.50;;;1.20;;
58091;SDS011;43896;48.178;11.578;2022-10-16T11:01:35;1.48;;;0.90;;
58091;SDS011;43896;48.178;11.578;2022-10-16T11:07:31;1.77;;;0.93;;
58091;SDS011;43896;48.178;11.578;2022-10-16T11:10:07;3.22;;;1.00;;
58091;SDS011;43896;48.178;11.578;2022-10-16T11:12:42;2.80;;;1.10;;
58091;SDS011;43896;48.178;11.578;2022-10-16T11:15:13;1.52;;;0.90;;
58091;SDS011;43896;48.178;11.578;2022-10-16T11:17:50;1.45;;;0.82;;
58091;SDS011;43896;48.178;11.578;2022-10-16T11:20:29;1.60;;;0.70;;
58091;SDS011;43896;48.178;11.578;2022-10-16T11:25:45;1.40;;;0.80;;
58091;SDS011;43896;48.178;11.578;2022-10-16T11:28:14;1.25;;;0.70;;
58091;SDS011;43896;48.178;11.578;2022-10-16T11:31:00;1.17;;;0.70;;
58091;SDS011;43896;48.178;11.578;2022-10-16T11:33:32;1.33;;;0.60;;
58091;SDS011;43896;48.178;11.578;2022-10-16T11:36:05;1.75;;;0.80;;
58091;SDS011;43896;48.178;11.578;2022-10-16T11:41:24;1.40;;;0.75;;
58091;SDS011;43896;48.178;11.578;2022-10-16T11:44:11;2.75;;;0.70;;
58091;SDS011;43896;48.178;11.578;2022-10-16T11:46:42;1.20;;;0.60;;
58091;SDS011;43896;48.178;11.578;2022-10-16T11:49:14;1.52;;;0.60;;
58091;SDS011;43896;48.178;11.578;2022-10-16T11:51:45;1.65;;;0.70;;
58091;SDS011;43896;48.178;11.578;2022-10-16T11:54:22;1.50;;;0.60;;
58091;SDS011;43896;48.178;11.578;2022-10-16T11:56:57;2.40;;;0.75;;
58091;SDS011;43896;48.178;11.578;2022-10-16T11:59:50;1.45;;;0.60;;
58091;SDS011;43896;48.178;11.578;2022-10-16T12:02:44;1.50;;;0.70;;
58091;SDS011;43896;48.178;11.578;2022-10-16T12:05:38;1.15;;;0.60;;
58091;SDS011;43896;48.178;11.578;2022-10-16T12:08:16;1.90;;;0.60;;
58091;SDS011;43896;48.178;11.578;2022-10-16T12:10:43;3.33;;;0.70;;
58091;SDS011;43896;48.178;11.578;2022-10-16T12:18:38;2.55;;;1.00;;
58091;SDS011;43896;48.178;11.578;2022-10-16T12:21:05;1.70;;;0.80;;
58091;SDS011;43896;48.178;11.578;2022-10-16T12:23:32;2.25;;;0.88;;
58091;SDS011;43896;48.178;11.578;2022-10-16T12:26:01;1.60;;;0.80;;
58091;SDS011;43896;48.178;11.578;2022-10-16T12:28:28;2.22;;;0.90;;
58091;SDS011;43896;48.178;11.578;2022-10-16T12:30:57;1.10;;;0.73;;
58091;SDS011;43896;48.178;11.578;2022-10-16T12:33:25;1.57;;;0.83;;
58091;SDS011;43896;48.178;11.578;2022-10-16T12:35:52;1.75;;;0.90;;
58091;SDS011;43896;48.178;11.578;2022-10-16T12:38:26;1.80;;;0.90;;
58091;SDS011;43896;48.178;11.578;2022-10-16T12:40:55;2.58;;;0.85;;
58091;SDS011;43896;48.178;11.578;2022-10-16T12:43:25;2.63;;;1.17;;
58091;SDS011;43896;48.178;11.578;2022-10-16T12:46:44;2.63;;;1.00;;
58091;SDS011;43896;48.178;11.578;2022-10-16T12:49:19;3.38;;;0.80;;
58091;SDS011;43896;48.178;11.578;2022-10-16T12:51:49;1.63;;;0.73;;
58091;SDS011;43896;48.178;11.578;2022-10-16T12:59:31;2.05;;;0.90;;
58091;SDS011;43896;48.178;11.578;2022-10-16T13:05:16;1.58;;;0.77;;
58091;SDS011;43896;48.178;11.578;2022-10-16T13:08:35;1.70;;;0.90;;
58091;SDS011;43896;48.178;11.578;2022-10-16T13:13:40;2.00;;;1.00;;
58091;SDS011;43896;48.178;11.578;2022-10-16T13:16:35;1.73;;;0.80;;
58091;SDS011;43896;48.178;11.578;2022-10-16T13:30:19;1.98;;;0.75;;
58091;SDS011;43896;48.178;11.578;2022-10-16T13:32:47;1.73;;;0.80;;
58091;SDS011;43896;48.178;11.578;2022-10-16T13:35:21;2.10;;;0.70;;
58091;SDS011;43896;48.178;11.578;2022-10-16T13:37:49;2.22;;;0.80;;
58091;SDS011;43896;48.178;11.578;2022-10-16T13:40:19;1.83;;;0.70;;
58091;SDS011;43896;48.178;11.578;2022-10-16T13:42:47;2.00;;;0.80;;
58091;SDS011;43896;48.178;11.578;2022-10-16T13:45:25;1.38;;;0.60;;
58091;SDS011;43896;48.178;11.578;2022-10-16T13:48:01;1.27;;;0.70;;
58091;SDS011;43896;48.178;11.578;2022-10-16T13:50:27;2.55;;;0.80;;
58091;SDS011;43896;48.178;11.578;2022-10-16T13:53:02;2.63;;;0.77;;
58091;SDS011;43896;48.178;11.578;2022-10-16T13:55:32;1.45;;;0.70;;
58091;SDS011;43896;48.178;11.578;2022-10-16T13:58:07;2.22;;;0.80;;
58091;SDS011;43896;48.178;11.578;2022-10-16T14:03:07;2.85;;;0.93;;
58091;SDS011;43896;48.178;11.578;2022-10-16T14:05:52;2.67;;;0.90;;
58091;SDS011;43896;48.178;11.578;2022-10-16T14:08:19;3.30;;;1.00;;
58091;SDS011;43896;48.178;11.578;2022-10-16T14:10:49;2.33;;;0.85;;
58091;SDS011;43896;48.178;11.578;2022-10-16T14:13:17;2.80;;;0.80;;
58091;SDS011;43896;48.178;11.578;2022-10-16T14:15:49;2.17;;;0.80;;
58091;SDS011;43896;48.178;11.578;2022-10-16T14:18:23;2.10;;;0.70;;
58091;SDS011;43896;48.178;11.578;2022-10-16T14:20:51;2.65;;;0.70;;
58091;SDS011;43896;48.178;11.578;2022-10-16T14:23:21;1.40;;;0.60;;
58091;SDS011;43896;48.178;11.578;2022-10-16T14:25:52;3.38;;;0.70;;
58091;SDS011;43896;48.178;11.578;2022-10-16T14:28:19;1.55;;;0.70;;
58091;SDS011;43896;48.178;11.578;2022-10-16T14:30:53;1.60;;;0.55;;
58091;SDS011;43896;48.178;11.578;2022-10-16T14:33:24;1.40;;;0.63;;
58091;SDS011;43896;48.178;11.578;2022-10-16T14:36:05;2.35;;;0.65;;
58091;SDS011;43896;48.178;11.578;2022-10-16T14:38:40;1.45;;;0.57;;
58091;SDS011;43896;48.178;11.578;2022-10-16T14:41:08;1.45;;;0.70;;
58091;SDS011;43896;48.178;11.578;2022-10-16T14:46:06;1.33;;;0.65;;
58091;SDS011;43896;48.178;11.578;2022-10-16T14:48:39;1.75;;;0.70;;
58091;SDS011;43896;48.178;11.578;2022-10-16T14:51:08;1.90;;;0.60;;
58091;SDS011;43896;48.178;11.578;2022-10-16T14:53:39;3.13;;;0.70;;
58091;SDS011;43896;48.178;11.578;2022-10-16T14:56:08;2.67;;;0.52;;
58091;SDS011;43896;48.178;11.578;2022-10-16T14:58:40;0.80;;;0.60;;
58091;SDS011;43896;48.178;11.578;2022-10-16T15:01:07;2.65;;;0.70;;
58091;SDS011;43896;48.178;11.578;2022-10-16T15:03:33;2.90;;;0.70;;
58091;SDS011;43896;48.178;11.578;2022-10-16T15:05:58;3.17;;;0.73;;
58091;SDS011;43896;48.178;11.578;2022-10-16T15:08:24;1.55;;;0.70;;
58091;SDS011;43896;48.178;11.578;2022-10-16T15:10:49;2.78;;;0.82;;
58091;SDS011;43896;48.178;11.578;2022-10-16T15:13:14;2.83;;;0.80;;
58091;SDS011;43896;48.178;11.578;2022-10-16T15:15:42;4.55;;;0.90;;
58091;SDS011;43896;48.178;11.578;2022-10-16T15:18:08;2.00;;;0.70;;
58091;SDS011;43896;48.178;11.578;2022-10-16T15:20:34;1.90;;;0.80;;
58091;SDS011;43896;48.178;11.578;2022-10-16T15:23:01;2.15;;;0.90;;
58091;SDS011;43896;48.178;11.578;2022-10-16T15:25:33;1.50;;;0.80;;
58091;SDS011;43896;48.178;11.578;2022-10-16T15:28:04;2.95;;;1.27;;
58091;SDS011;43896;48.178;11.578;2022-10-16T15:30:31;3.80;;;1.20;;
58091;SDS011;43896;48.178;11.578;2022-10-16T15:32:57;5.03;;;1.20;;
58091;SDS011;43896;48.178;11.578;2022-10-16T15:35:23;5.18;;;1.60;;
58091;SDS011;43896;48.178;11.578;2022-10-16T15:37:48;3.50;;;1.58;;
58091;SDS011;43896;48.178;11.578;2022-10-16T15:40:14;5.35;;;1.35;;
58091;SDS011;43896;48.178;11.578;2022-10-16T15:42:41;3.90;;;1.50;;
58091;SDS011;43896;48.178;11.578;2022-10-16T15:45:06;2.55;;;1.00;;
58091;SDS011;43896;48.178;11.578;2022-10-16T15:47:33;2.55;;;1.20;;
58091;SDS011;43896;48.178;11.578;2022-10-16T15:49:58;2.05;;;0.85;;
58091;SDS011;43896;48.178;11.578;2022-10-16T15:52:24;2.72;;;1.02;;
58091;SDS011;43896;48.178;11.578;2022-10-16T15:54:49;2.90;;;0.80;;
58091;SDS011;43896;48.178;11.578;2022-10-16T15:57:17;1.80;;;0.90;;
58091;SDS011;43896;48.178;11.578;2022-10-16T15:59:43;3.47;;;1.00;;
58091;SDS011;43896;48.178;11.578;2022-10-16T16:02:08;2.63;;;0.98;;
58091;SDS011;43896;48.178;11.578;2022-10-16T16:04:34;2.63;;;0.95;;
58091;SDS011;43896;48.178;11.578;2022-10-16T16:07:00;2.13;;;1.00;;
58091;SDS011;43896;48.178;11.578;2022-10-16T16:09:26;4.40;;;1.17;;
58091;SDS011;43896;48.178;11.578;2022-10-16T16:11:51;3.55;;;1.13;;
58091;SDS011;43896;48.178;11.578;2022-10-16T16:14:17;2.22;;;1.10;;
58091;SDS011;43896;48.178;11.578;2022-10-16T16:16:42;4.93;;;1.08;;
58091;SDS011;43896;48.178;11.578;2022-10-16T16:19:08;2.95;;;1.30;;
58091;SDS011;43896;48.178;11.578;2022-10-16T16:21:34;3.58;;;1.50;;
58091;SDS011;43896;48.178;11.578;2022-10-16T16:24:00;2.95;;;1.27;;
58091;SDS011;43896;48.178;11.578;2022-10-16T16:26:26;4.55;;;1.23;;